메인 페이지
METAR-TAF:

METAR-TAF

공항 :

석유플랫폼 Norsk Hydro

Oseberg, 노르웨이

위도: 60-29-29N, 경도: 2-49-32E, 고도: 158m

현재 날씨관측

예보는 47분 전, 01:50시(UTC)에 발표되었습니다.
북북동22kt
온도 12°C
습도 94%
기압 1016 hPa
시정 10km 이상
고도 1000ft 상공 흐림

METAR: ENOA 130150Z 02022KT 9999 OVC010 12/11 Q1016 W///S4

시각: 04:37 (02:37 UTC)

예보

예보는 3 시간 37분 전, 23:00시(UTC)에 발표되었습니다.
예보 대상 시간: 13일 00시부터 13일 24시까지 (UTC)
22kt
시정 10km 이상
고도 1000ft 상공 구름 많음
일시적
13일 00시부터 13일 24시까지 (UTC)
고도 500ft 상공 구름 많음
확률 30%
13일 12시부터 13일 24시까지 (UTC)
고도 500ft 상공 구름 보통

TAF: ENOA 122300Z 1300/1324 01022KT 9999 BKN010 TEMPO 1300/1324 BKN005 PROB30 1312/1324 SCT005

4,000개 이상의 공항 관측 자료 및 예보 (METAR 및 TAF 보고).

지도상에서 검색 가능한 기상관측소가 노란 점과 빨간 점으로 표시되어 있습니다.

기상관측소 명을 보려면 표시 위로 마우스를 이동하세요.

날씨 관측과 예보를 보려면 클릭하세요.

지도 변경 : 확대하려면 엑스 표시가 있는 녹색 버튼, 축소하려면 빼기 표시가 있는 녹색 버튼, 다음 페이지의 지도를 보려면 녹색 화살표를 클릭하세요.


METAR-TAF: